Time;durP1;ratioP1;P1;durP2;ratioP2;P2;SDS_P1;SDS_P2;PMS_P1;PMS_P2;Temp;Humidity;BMP_temperature;BMP_pressure;BME280_temperature;BME280_humidity;BME280_pressure;Samples;Min_cycle;Max_cycle;Signal;HPM_P1;HPM_P2
2022/06/23 19:46:14;;;;;;;6.28;4.25;;;;;;;24.87;33.69;98773.31;5165613;27;20125;-71
2022/06/23 19:48:43;;;;;;;5.32;3.97;;;;;;;24.66;33.55;98732.63;5164033;27;20054;-71
2022/06/23 19:51:14;;;;;;;5.68;4.00;;;;;;;25.00;34.11;98769.09;5164300;27;20046;-71
2022/06/23 19:53:47;;;;;;;6.70;4.63;;;;;;;25.01;33.59;98777.06;5164500;27;20050;-72
2022/06/23 19:56:25;;;;;;;7.97;4.43;;;;;;;25.08;33.18;98777.13;5164153;27;20050;-71
2022/06/23 19:59:06;;;;;;;8.52;5.28;;;;;;;25.08;33.27;98769.84;5163811;27;20062;-72
2022/06/23 20:01:39;;;;;;;8.25;5.20;;;;;;;25.11;33.55;98771.31;5164028;27;20050;-71
2022/06/23 20:04:18;;;;;;;8.90;5.90;;;;;;;25.03;34.10;98761.44;5163920;27;20353;-72
2022/06/23 20:06:57;;;;;;;7.15;6.05;;;;;;;25.17;34.27;98778.69;5163856;27;20303;-71
2022/06/23 20:09:32;;;;;;;7.43;5.78;;;;;;;25.18;34.06;98781.22;5163814;27;20058;-71
2022/06/23 20:12:05;;;;;;;8.35;6.90;;;;;;;25.18;35.02;98778.50;5163365;27;20055;-72
2022/06/23 20:14:35;;;;;;;8.43;5.70;;;;;;;25.23;34.91;98773.34;5163918;27;20051;-72
2022/06/23 20:17:15;;;;;;;11.30;5.68;;;;;;;25.26;34.16;98774.84;5163591;27;20218;-73
2022/06/23 20:19:56;;;;;;;7.65;4.35;;;;;;;25.29;34.33;98779.88;5163467;27;20061;-72
2022/06/23 20:22:36;;;;;;;4.88;3.72;;;;;;;25.25;33.90;98775.88;5163455;27;20054;-72
2022/06/23 20:25:22;;;;;;;9.60;7.25;;;;;;;25.28;34.01;98773.59;5145174;27;20055;-71
2022/06/23 20:27:57;;;;;;;12.77;8.88;;;;;;;25.27;35.10;98774.63;5163786;27;20040;-72
2022/06/23 20:30:35;;;;;;;7.95;5.82;;;;;;;25.27;34.88;98771.09;5162217;27;20202;-71
2022/06/23 20:33:30;;;;;;;19.85;15.13;;;;;;;25.24;35.69;98777.72;5161640;27;20050;-71
2022/06/23 20:36:07;;;;;;;19.13;15.98;;;;;;;25.11;36.30;98741.50;5162253;27;20051;-72
2022/06/23 20:38:56;;;;;;;12.85;9.85;;;;;;;25.23;36.84;98773.34;5162176;27;20215;-72
2022/06/23 20:41:31;;;;;;;26.65;18.65;;;;;;;25.26;36.58;98769.41;5162192;27;20055;-72
2022/06/23 20:44:15;;;;;;;12.77;11.35;;;;;;;25.27;37.03;98773.78;5163014;27;20267;-72
2022/06/23 20:47:02;;;;;;;24.75;21.95;;;;;;;25.28;36.98;98768.19;5162299;27;20065;-72
2022/06/23 20:49:52;;;;;;;22.88;20.40;;;;;;;25.25;37.13;98773.16;5163513;27;20054;-72
2022/06/23 20:52:25;;;;;;;14.65;13.00;;;;;;;25.18;38.15;98775.78;5160452;27;20223;-72
2022/06/23 20:55:01;;;;;;;18.15;16.05;;;;;;;25.24;38.01;98791.28;5163427;27;20206;-72
2022/06/23 20:57:37;;;;;;;21.85;19.30;;;;;;;25.25;37.71;98778.56;5149390;27;20223;-73
2022/06/23 21:00:09;;;;;;;24.63;22.10;;;;;;;25.26;38.28;98778.38;5149651;27;20051;-72
2022/06/23 21:02:43;;;;;;;18.45;15.50;;;;;;;25.24;38.37;98772.31;5149463;27;20054;-73
2022/06/23 21:05:23;;;;;;;16.35;14.60;;;;;;;25.20;38.32;98771.00;5149371;27;20057;-73
2022/06/23 21:08:01;;;;;;;11.63;9.73;;;;;;;24.70;37.76;98695.16;5148953;27;20051;-73
2022/06/23 21:10:35;;;;;;;9.50;7.05;;;;;;;25.17;37.22;98773.28;5149292;27;20047;-72
2022/06/23 21:13:09;;;;;;;9.48;6.53;;;;;;;25.07;37.11;98781.72;5149165;27;20062;-72
2022/06/23 21:15:40;;;;;;;;;;;;;;;24.87;37.83;98775.19;5149505;27;20051;-71
2022/06/23 21:18:34;;;;;;;9.63;6.88;;;;;;;24.61;37.46;98764.81;5149077;27;19915;-72
2022/06/23 21:21:15;;;;;;;14.55;8.35;;;;;;;24.73;37.53;98784.19;5149028;27;20172;-72
2022/06/23 21:24:06;;;;;;;12.40;10.95;;;;;;;24.84;37.46;98780.97;5148958;27;20215;-73
2022/06/23 21:26:45;;;;;;;12.88;11.45;;;;;;;24.70;37.34;98773.72;5149105;27;20039;-72
2022/06/23 21:29:27;;;;;;;12.07;10.73;;;;;;;24.74;37.82;98775.03;5149096;27;20051;-72
2022/06/23 21:31:59;;;;;;;10.65;9.27;;;;;;;24.62;38.09;98758.38;5148312;27;20077;-71
2022/06/23 21:34:33;;;;;;;16.33;12.50;;;;;;;24.79;38.04;98780.72;5148135;27;20058;-72
2022/06/23 21:37:04;;;;;;;18.83;16.55;;;;;;;24.75;37.92;98782.13;5148580;27;20055;-72
2022/06/23 21:39:40;;;;;;;21.20;18.63;;;;;;;24.72;38.15;98779.78;5148851;27;20129;-73
2022/06/23 21:42:13;;;;;;;19.00;16.90;;;;;;;24.69;37.96;98778.28;5148348;27;20051;-73
2022/06/23 21:44:50;;;;;;;24.25;21.02;;;;;;;24.67;38.22;98774.09;5148428;27;20080;-73
2022/06/23 21:47:22;;;;;;;25.27;20.90;;;;;;;24.66;38.26;98769.69;5148415;27;20055;-72
2022/06/23 21:50:06;;;;;;;17.65;15.77;;;;;;;24.50;38.11;98776.13;5148590;27;20055;-72
2022/06/23 21:52:49;;;;;;;26.67;24.05;;;;;;;24.52;38.04;98779.50;5148485;27;20055;-72
2022/06/23 21:55:26;;;;;;;16.77;14.55;;;;;;;24.49;38.41;98775.28;5148028;27;20058;-72
2022/06/23 21:58:06;;;;;;;11.55;10.32;;;;;;;24.48;38.34;98776.31;5148485;27;20062;-72
2022/06/23 22:00:37;;;;;;;8.15;7.25;;;;;;;24.43;38.65;98780.63;5148233;27;20050;-71
2022/06/23 22:03:11;;;;;;;36.67;31.60;;;;;;;24.46;38.34;98769.41;5148676;27;20055;-71
2022/06/23 22:05:53;;;;;;;63.00;50.78;;;;;;;24.42;38.44;98778.94;5147927;27;20066;-72
2022/06/23 22:08:30;;;;;;;19.10;15.13;;;;;;;24.31;38.50;98782.94;5147082;27;20055;-71
2022/06/23 22:11:02;;;;;;;13.80;9.27;;;;;;;24.30;38.75;98778.56;5147789;27;20055;-71
2022/06/23 22:13:30;;;;;;;9.07;5.90;;;;;;;24.27;39.08;98776.22;5147919;27;20055;-71
2022/06/23 22:16:01;;;;;;;9.57;6.72;;;;;;;24.28;39.05;98776.03;5148173;27;20039;-71
2022/06/23 22:18:36;;;;;;;8.55;5.93;;;;;;;24.23;38.98;98777.63;5148038;27;20055;-71
2022/06/23 22:21:14;;;;;;;6.88;5.82;;;;;;;24.14;39.09;98781.44;5147708;27;20055;-71
2022/06/23 22:26:53;;;;;;;9.02;6.28;;;;;;;24.10;39.51;98782.84;5147926;27;20050;-71
2022/06/23 22:29:38;;;;;;;11.35;8.13;;;;;;;24.10;39.29;98782.84;5147795;27;20055;-70
2022/06/23 22:32:09;;;;;;;9.98;7.40;;;;;;;24.06;39.53;98789.63;5147682;27;20054;-71
2022/06/23 22:34:54;;;;;;;7.75;6.15;;;;;;;24.02;39.38;98783.75;5147165;27;20055;-70
2022/06/23 22:37:46;;;;;;;8.80;5.63;;;;;;;23.95;39.57;98791.75;5147738;27;20051;-71
2022/06/23 22:40:22;;;;;;;8.82;5.07;;;;;;;23.88;39.68;98785.38;5137959;27;20204;-70
2022/06/23 22:43:27;;;;;;;7.72;5.47;;;;;;;23.89;39.46;98795.19;5147553;27;20059;-70
2022/06/23 22:46:04;;;;;;;6.35;4.40;;;;;;;23.64;39.81;98761.25;5123044;27;20054;-70
2022/06/23 22:48:43;;;;;;;75.65;57.25;;;;;;;23.83;39.74;98784.25;5147211;27;20065;-70
2022/06/23 22:51:12;;;;;;;19.88;16.52;;;;;;;23.66;39.94;98787.09;5147210;27;20055;-71
2022/06/23 22:53:58;;;;;;;9.48;7.85;;;;;;;23.76;39.88;98788.69;5147461;27;20047;-70
2022/06/23 22:56:45;;;;;;;8.88;6.00;;;;;;;23.01;39.87;98676.72;5147465;27;20051;-70
2022/06/23 22:59:19;;;;;;;8.63;5.30;;;;;;;23.68;39.95;98793.16;5147017;27;20061;-70
2022/06/23 23:01:56;;;;;;;8.23;4.07;;;;;;;23.44;40.09;98765.47;5147363;27;20062;-71
2022/06/23 23:04:52;;;;;;;9.05;7.65;;;;;;;23.56;39.90;98791.06;5147123;27;20051;-71
2022/06/23 23:07:28;;;;;;;7.97;6.47;;;;;;;23.05;40.22;98705.06;5146963;27;20051;-71
2022/06/23 23:09:58;;;;;;;6.38;5.13;;;;;;;23.53;40.35;98794.13;5146971;27;20062;-71
2022/06/23 23:12:32;;;;;;;7.75;5.63;;;;;;;23.01;40.43;98711.00;5146614;27;20074;-71
2022/06/23 23:15:13;;;;;;;10.32;8.18;;;;;;;23.64;40.35;98781.03;5146719;27;20062;-71
2022/06/23 23:17:48;;;;;;;16.17;12.68;;;;;;;23.48;40.53;98789.25;5146883;27;20051;-71
2022/06/23 23:20:17;;;;;;;23.45;12.45;;;;;;;23.40;40.87;98785.78;5146503;27;20055;-73
2022/06/23 23:22:44;;;;;;;8.48;6.90;;;;;;;23.36;40.90;98778.03;5146409;27;20062;-73
2022/06/23 23:25:18;;;;;;;8.20;6.07;;;;;;;23.36;40.72;98771.78;5146623;27;20318;-73
2022/06/23 23:27:47;;;;;;;10.38;6.20;;;;;;;23.32;40.93;98781.25;5146584;27;20311;-73
2022/06/23 23:30:16;;;;;;;5.43;4.88;;;;;;;22.84;41.19;98702.16;5146761;27;20234;-73
2022/06/23 23:32:43;;;;;;;7.53;6.00;;;;;;;23.29;41.17;98771.66;5146820;27;20055;-72
2022/06/23 23:35:42;;;;;;;9.63;7.57;;;;;;;22.58;41.62;98670.06;5146321;27;20054;-72
2022/06/23 23:38:09;;;;;;;14.75;10.55;;;;;;;23.17;41.27;98767.66;5147188;27;20329;-72
2022/06/23 23:40:42;;;;;;;14.75;9.35;;;;;;;23.19;41.14;98765.59;5146540;27;20066;-72
2022/06/23 23:43:09;;;;;;;6.95;6.25;;;;;;;23.30;40.56;98765.22;5146704;27;20055;-73
2022/06/23 23:45:40;;;;;;;8.07;6.55;;;;;;;23.16;41.45;98762.41;5146016;28;20079;-72
2022/06/23 23:48:12;;;;;;;7.00;5.22;;;;;;;22.95;42.60;98765.75;5146511;27;20066;-72
2022/06/23 23:50:41;;;;;;;6.47;5.72;;;;;;;22.81;42.72;98767.34;5146701;27;20051;-73
2022/06/23 23:53:08;;;;;;;8.73;5.47;;;;;;;22.92;42.59;98763.41;5146224;27;20215;-73
2022/06/23 23:55:39;;;;;;;6.35;5.13;;;;;;;22.81;42.93;98743.03;5146513;28;20038;-73
2022/06/23 23:58:06;;;;;;;5.30;4.28;;;;;;;22.93;42.95;98759.69;5146323;27;20055;-73
